createdAt,value
2023-01-05T00:01:54.675Z,76.90
2023-01-05T00:04:22.653Z,76.90
2023-01-05T00:06:49.848Z,77.00
2023-01-05T00:09:19.273Z,77.30
2023-01-05T00:12:05.225Z,77.30
2023-01-05T00:14:52.737Z,77.50
2023-01-05T00:17:43.012Z,77.40
2023-01-05T00:20:40.169Z,77.30
2023-01-05T00:23:08.784Z,77.40
2023-01-05T00:25:41.172Z,77.30
2023-01-05T00:28:09.021Z,77.50
2023-01-05T00:30:41.788Z,77.50
2023-01-05T00:33:15.208Z,77.20
2023-01-05T00:35:42.920Z,77.00
2023-01-05T00:38:10.569Z,77.00
2023-01-05T00:40:38.897Z,77.20
2023-01-05T00:43:06.136Z,77.40
2023-01-05T00:45:33.436Z,77.40
2023-01-05T00:48:00.472Z,77.50
2023-01-05T00:50:27.822Z,77.40
2023-01-05T00:52:55.177Z,77.30
2023-01-05T00:55:22.309Z,77.10
2023-01-05T00:57:49.948Z,77.00
2023-01-05T01:00:19.857Z,77.10
2023-01-05T01:02:47.871Z,76.90
2023-01-05T01:05:15.416Z,76.90
2023-01-05T01:07:42.789Z,77.20
2023-01-05T01:10:11.602Z,77.30
2023-01-05T01:12:38.738Z,77.10
2023-01-05T01:15:07.039Z,77.20
2023-01-05T01:17:35.513Z,76.90
2023-01-05T01:20:02.845Z,77.00
2023-01-05T01:22:29.897Z,77.20
2023-01-05T01:24:57.150Z,77.30
2023-01-05T01:27:24.446Z,77.40
2023-01-05T01:29:51.861Z,77.40
2023-01-05T01:32:19.368Z,77.50
2023-01-05T01:34:46.419Z,77.50
2023-01-05T01:37:13.791Z,77.40
2023-01-05T01:39:46.352Z,77.30
2023-01-05T01:42:16.548Z,77.20
2023-01-05T01:44:53.028Z,77.30
2023-01-05T01:47:35.545Z,77.30
2023-01-05T01:50:19.768Z,77.20
2023-01-05T01:52:51.232Z,77.10
2023-01-05T01:55:19.579Z,77.10
2023-01-05T01:57:49.168Z,77.10
2023-01-05T02:00:18.598Z,77.50
2023-01-05T02:02:55.913Z,77.50
2023-01-05T02:05:31.234Z,77.60
2023-01-05T02:07:58.818Z,77.50
2023-01-05T02:11:04.626Z,77.50
2023-01-05T02:14:15.017Z,76.80
2023-01-05T02:17:34.743Z,77.00
2023-01-05T02:20:43.535Z,76.50
2023-01-05T02:24:15.847Z,76.60
2023-01-05T02:26:57.754Z,76.00
2023-01-05T02:30:14.409Z,75.90
2023-01-05T02:33:01.359Z,76.20
2023-01-05T02:35:59.360Z,75.90
2023-01-05T02:38:49.780Z,75.90
2023-01-05T02:41:23.554Z,75.90
2023-01-05T02:43:51.010Z,75.90
2023-01-05T02:46:18.514Z,75.80
2023-01-05T02:48:49.061Z,75.90
2023-01-05T02:51:23.806Z,76.00
2023-01-05T02:54:03.736Z,75.50
2023-01-05T02:56:44.766Z,75.50
2023-01-05T02:59:24.035Z,75.30
2023-01-05T03:02:02.812Z,75.40
2023-01-05T03:04:45.196Z,75.30
2023-01-05T03:07:18.145Z,75.30
2023-01-05T03:09:46.616Z,75.20
2023-01-05T03:12:46.812Z,75.30
2023-01-05T03:15:23.877Z,75.20
2023-01-05T03:17:58.249Z,75.20
2023-01-05T03:20:31.365Z,75.40
2023-01-05T03:23:19.450Z,75.40
2023-01-05T03:26:06.512Z,75.80
2023-01-05T03:29:01.123Z,75.80
2023-01-05T03:31:55.319Z,75.80
2023-01-05T03:34:57.888Z,76.00
2023-01-05T03:37:51.252Z,75.80
2023-01-05T03:40:29.813Z,75.80
2023-01-05T03:42:57.499Z,75.80
2023-01-05T03:45:42.696Z,75.90
2023-01-05T03:48:15.502Z,75.90
2023-01-05T03:50:42.902Z,75.80
2023-01-05T03:53:13.817Z,75.90
2023-01-05T03:55:43.122Z,75.90
2023-01-05T03:58:10.662Z,76.00
2023-01-05T04:00:42.609Z,76.00
2023-01-05T04:03:12.442Z,76.00
2023-01-05T04:05:39.931Z,76.10
2023-01-05T04:08:07.865Z,76.10
2023-01-05T04:10:36.279Z,76.10
2023-01-05T04:13:03.583Z,76.20
2023-01-05T04:15:31.225Z,76.20
2023-01-05T04:17:59.544Z,76.20
2023-01-05T04:20:26.616Z,76.30
2023-01-05T04:22:53.599Z,76.10
2023-01-05T04:25:23.019Z,76.30
2023-01-05T04:27:50.203Z,76.20
2023-01-05T04:30:18.450Z,76.10
2023-01-05T04:32:45.493Z,76.20
2023-01-05T04:35:15.694Z,76.20
2023-01-05T04:37:45.005Z,76.20
2023-01-05T04:40:13.532Z,76.20
2023-01-05T04:42:51.498Z,76.00
2023-01-05T04:45:18.827Z,75.90
2023-01-05T04:47:46.158Z,76.00
2023-01-05T04:50:17.883Z,75.70
2023-01-05T04:52:46.000Z,75.70
2023-01-05T04:55:13.219Z,75.90
2023-01-05T04:57:41.389Z,76.50
2023-01-05T05:00:12.753Z,75.60
2023-01-05T05:02:40.029Z,75.40
2023-01-05T05:05:09.605Z,75.50
2023-01-05T05:07:38.897Z,75.40
2023-01-05T05:10:09.728Z,75.50
2023-01-05T05:12:38.607Z,75.60
2023-01-05T05:15:07.220Z,75.70
2023-01-05T05:17:34.435Z,75.90
2023-01-05T05:20:03.369Z,75.80
2023-01-05T05:22:30.735Z,75.80
2023-01-05T05:25:00.399Z,75.70
2023-01-05T05:27:27.692Z,75.60
2023-01-05T05:29:54.803Z,75.70
2023-01-05T05:32:21.786Z,75.60
2023-01-05T05:34:48.816Z,75.30
2023-01-05T05:37:15.700Z,75.50
2023-01-05T05:39:42.809Z,75.70
2023-01-05T05:42:09.941Z,75.60
2023-01-05T05:44:36.900Z,75.50
2023-01-05T05:47:03.971Z,75.60
2023-01-05T05:49:31.322Z,75.40
2023-01-05T05:51:58.352Z,75.60
2023-01-05T05:54:25.337Z,75.90
2023-01-05T05:56:52.439Z,75.90
2023-01-05T05:59:19.832Z,75.60
2023-01-05T06:01:47.030Z,75.90
2023-01-05T06:04:14.230Z,76.20
2023-01-05T06:06:41.518Z,75.90
2023-01-05T06:09:08.522Z,76.40
2023-01-05T06:11:35.913Z,76.40
2023-01-05T06:14:03.253Z,76.40
2023-01-05T06:16:30.419Z,76.80
2023-01-05T06:18:58.093Z,76.80
2023-01-05T06:21:25.291Z,77.00
2023-01-05T06:23:52.307Z,76.80
2023-01-05T06:26:20.043Z,76.70
2023-01-05T06:28:47.257Z,76.80
2023-01-05T06:31:14.542Z,76.90
2023-01-05T06:33:41.859Z,76.80
2023-01-05T06:36:09.178Z,76.90
2023-01-05T06:38:36.158Z,77.00
2023-01-05T06:41:03.251Z,77.00
2023-01-05T06:43:30.988Z,77.10
2023-01-05T06:45:59.004Z,76.90
2023-01-05T06:48:26.162Z,76.80
2023-01-05T06:50:53.246Z,77.20
2023-01-05T06:53:20.286Z,77.80
2023-01-05T06:55:47.433Z,78.60
2023-01-05T06:58:14.520Z,79.10
2023-01-05T07:00:41.801Z,79.50
2023-01-05T07:03:13.665Z,80.30
2023-01-05T07:05:41.609Z,80.80
2023-01-05T07:08:08.660Z,81.20
2023-01-05T07:10:35.675Z,81.30
2023-01-05T07:13:02.720Z,81.30
2023-01-05T07:15:30.022Z,81.40
2023-01-05T07:17:56.928Z,81.60
2023-01-05T07:20:23.879Z,81.70
2023-01-05T07:22:50.811Z,81.60
2023-01-05T07:25:18.293Z,81.70
2023-01-05T07:27:50.796Z,81.50
2023-01-05T07:30:18.600Z,81.70
2023-01-05T07:32:45.912Z,81.60
2023-01-05T07:35:13.273Z,81.90
2023-01-05T07:37:40.456Z,82.10
2023-01-05T07:40:08.493Z,82.20
2023-01-05T07:42:35.761Z,82.40
2023-01-05T07:45:04.901Z,82.20
2023-01-05T07:47:32.115Z,82.40
2023-01-05T07:50:00.040Z,82.90
2023-01-05T07:52:30.765Z,83.10
2023-01-05T07:54:58.416Z,83.30
2023-01-05T07:57:26.117Z,83.40
2023-01-05T07:59:56.271Z,83.10
2023-01-05T08:02:24.115Z,83.20
2023-01-05T08:04:51.842Z,83.10
2023-01-05T08:07:19.349Z,82.80
2023-01-05T08:10:05.642Z,82.80
2023-01-05T08:12:32.808Z,83.60
2023-01-05T08:15:00.140Z,82.60
2023-01-05T08:17:27.241Z,82.80
2023-01-05T08:19:54.196Z,82.90
2023-01-05T08:22:21.442Z,82.70
2023-01-05T08:24:48.490Z,82.70
2023-01-05T08:27:15.703Z,82.60
2023-01-05T08:29:43.250Z,82.60
2023-01-05T08:32:10.743Z,82.50
2023-01-05T08:34:38.597Z,82.40
2023-01-05T08:37:05.806Z,82.60
2023-01-05T08:39:35.229Z,82.60
2023-01-05T08:42:03.123Z,82.10
2023-01-05T08:46:58.106Z,82.80
2023-01-05T08:49:25.370Z,83.10
2023-01-05T08:51:53.067Z,83.10
2023-01-05T08:54:20.250Z,84.00
2023-01-05T08:56:50.585Z,83.50
2023-01-05T08:59:17.871Z,83.90
2023-01-05T09:01:45.713Z,84.00
2023-01-05T09:04:13.244Z,84.60
2023-01-05T09:06:41.774Z,84.90
2023-01-05T09:09:09.145Z,85.00
2023-01-05T09:11:36.311Z,85.30
2023-01-05T09:14:06.132Z,85.30
2023-01-05T09:17:06.331Z,85.20
2023-01-05T09:19:22.141Z,85.10
2023-01-05T09:21:49.485Z,85.10
2023-01-05T09:24:16.604Z,85.00
2023-01-05T09:26:44.616Z,86.40
2023-01-05T09:29:13.161Z,86.50
2023-01-05T09:31:41.529Z,86.60
2023-01-05T09:34:09.642Z,86.60
2023-01-05T09:36:38.935Z,86.70
2023-01-05T09:39:06.656Z,86.50
2023-01-05T09:41:45.052Z,86.80
2023-01-05T09:44:37.799Z,87.30
2023-01-05T09:47:35.279Z,86.90
2023-01-05T09:50:06.052Z,87.30
2023-01-05T09:52:38.041Z,87.30
2023-01-05T09:55:17.903Z,87.90
2023-01-05T09:58:05.796Z,87.90
2023-01-05T10:00:33.803Z,88.10
2023-01-05T10:03:29.260Z,88.20
2023-01-05T10:06:01.216Z,88.20
2023-01-05T10:08:38.135Z,88.00
2023-01-05T10:11:49.969Z,88.00
2023-01-05T10:14:30.942Z,88.20
2023-01-05T10:17:30.597Z,88.20
2023-01-05T10:19:53.150Z,86.80
2023-01-05T10:22:58.394Z,86.50
2023-01-05T10:25:34.348Z,87.50
2023-01-05T10:28:22.067Z,87.50
2023-01-05T10:31:00.231Z,87.60
2023-01-05T10:33:56.976Z,87.50
2023-01-05T10:37:07.523Z,87.40
2023-01-05T10:40:18.844Z,87.00
2023-01-05T10:43:17.469Z,86.20
2023-01-05T10:46:03.459Z,86.90
2023-01-05T10:48:35.830Z,86.60
2023-01-05T10:51:04.988Z,87.30
2023-01-05T10:53:36.498Z,86.30
2023-01-05T10:56:28.624Z,86.20
2023-01-05T10:59:15.257Z,85.20
2023-01-05T11:01:47.336Z,85.40
2023-01-05T11:04:34.839Z,85.40
2023-01-05T11:07:07.288Z,85.00
2023-01-05T11:09:49.135Z,85.10
2023-01-05T11:12:25.411Z,84.70
2023-01-05T11:14:59.014Z,84.80
2023-01-05T11:17:29.360Z,85.10
2023-01-05T11:19:58.467Z,84.70
2023-01-05T11:22:30.116Z,85.10
2023-01-05T11:25:18.793Z,84.80
2023-01-05T11:27:49.030Z,85.20
2023-01-05T11:30:24.532Z,85.20
2023-01-05T11:32:51.770Z,85.40
2023-01-05T11:35:24.405Z,84.70
2023-01-05T11:37:51.733Z,84.30
2023-01-05T11:40:21.937Z,84.90
2023-01-05T11:42:49.384Z,84.30
2023-01-05T11:45:38.786Z,84.60
2023-01-05T11:48:08.726Z,84.80
2023-01-05T11:50:49.779Z,84.80
2023-01-05T11:53:34.473Z,84.60
2023-01-05T11:56:24.991Z,84.80
2023-01-05T11:58:55.394Z,83.50
2023-01-05T12:01:54.149Z,84.20
2023-01-05T12:05:17.772Z,84.20
2023-01-05T12:07:55.766Z,84.60
2023-01-05T12:10:28.607Z,84.80
2023-01-05T12:13:16.344Z,83.70
2023-01-05T12:16:19.319Z,83.50
2023-01-05T12:19:42.696Z,83.70
2023-01-05T12:22:36.725Z,82.90
2023-01-05T12:25:44.871Z,82.20
2023-01-05T12:28:43.820Z,79.70
2023-01-05T12:35:14.779Z,80.60
2023-01-05T12:38:35.932Z,79.50
2023-01-05T12:41:55.435Z,79.50
2023-01-05T12:44:56.045Z,77.60
2023-01-05T12:47:58.688Z,78.10
2023-01-05T12:50:25.520Z,78.20
2023-01-05T12:53:19.416Z,79.50
2023-01-05T12:55:51.262Z,78.40
2023-01-05T12:58:31.900Z,79.60
2023-01-05T13:01:01.178Z,79.00
2023-01-05T13:03:32.160Z,79.30
2023-01-05T13:06:10.516Z,78.70
2023-01-05T13:08:53.749Z,79.60
2023-01-05T13:11:47.143Z,79.80
2023-01-05T13:14:21.366Z,79.90
2023-01-05T13:17:17.728Z,81.20
2023-01-05T13:19:49.283Z,83.00
2023-01-05T13:22:39.320Z,82.30
2023-01-05T13:25:23.008Z,81.10
2023-01-05T13:27:51.172Z,82.30
2023-01-05T13:30:29.811Z,79.30
2023-01-05T13:33:24.633Z,75.90
2023-01-05T13:36:21.737Z,75.30
2023-01-05T13:39:29.987Z,75.50
2023-01-05T13:42:42.413Z,70.10
2023-01-05T13:45:46.793Z,71.50
2023-01-05T13:49:11.089Z,69.30
2023-01-05T13:52:42.790Z,70.10
2023-01-05T13:55:25.083Z,70.20
2023-01-05T13:57:55.575Z,72.10
2023-01-05T14:00:34.000Z,72.50
2023-01-05T14:03:27.454Z,71.80
2023-01-05T14:06:01.253Z,72.70
2023-01-05T14:08:38.833Z,72.30
2023-01-05T14:11:12.011Z,72.20
2023-01-05T14:13:50.892Z,72.70
2023-01-05T14:16:39.187Z,73.00
2023-01-05T14:19:21.504Z,73.20
2023-01-05T14:21:51.421Z,72.50
2023-01-05T14:24:30.782Z,73.20
2023-01-05T14:27:07.513Z,73.70
2023-01-05T14:29:47.096Z,72.80
2023-01-05T14:32:37.537Z,72.40
2023-01-05T14:35:30.695Z,73.00
2023-01-05T14:38:06.233Z,72.80
2023-01-05T14:40:55.476Z,73.60
2023-01-05T14:43:34.323Z,74.30
2023-01-05T14:46:14.892Z,74.20
2023-01-05T14:48:57.782Z,73.80
2023-01-05T14:51:29.738Z,72.90
2023-01-05T14:54:05.550Z,73.80
2023-01-05T14:56:36.421Z,73.30
2023-01-05T14:59:25.389Z,72.00
2023-01-05T15:02:17.092Z,73.10
2023-01-05T15:04:44.829Z,72.80
2023-01-05T15:07:32.632Z,73.40
2023-01-05T15:10:34.030Z,74.10
2023-01-05T15:14:19.722Z,73.30
2023-01-05T15:16:57.773Z,73.90
2023-01-05T15:19:59.820Z,74.30
2023-01-05T15:23:00.534Z,74.20
2023-01-05T15:26:17.252Z,74.20
2023-01-05T15:29:27.880Z,75.60
2023-01-05T15:32:16.460Z,74.20
2023-01-05T15:34:48.565Z,75.70
2023-01-05T15:37:22.717Z,75.00
2023-01-05T15:39:54.403Z,74.90
2023-01-05T15:42:33.918Z,74.90
2023-01-05T15:45:01.167Z,75.00
2023-01-05T15:47:30.044Z,75.00
2023-01-05T15:50:00.425Z,74.70
2023-01-05T15:52:39.646Z,74.90
2023-01-05T15:55:19.174Z,75.00
2023-01-05T15:58:07.031Z,75.00
2023-01-05T16:00:36.444Z,75.00
2023-01-05T16:03:27.337Z,75.00
2023-01-05T16:06:01.596Z,74.20
2023-01-05T16:08:31.179Z,74.50
2023-01-05T16:11:01.291Z,75.10
2023-01-05T16:13:54.130Z,75.10
2023-01-05T16:16:54.158Z,74.90
2023-01-05T16:19:37.318Z,74.20
2023-01-05T16:22:32.326Z,73.80
2023-01-05T16:25:31.752Z,74.40
2023-01-05T16:28:03.799Z,74.40
2023-01-05T16:30:38.289Z,74.80
2023-01-05T16:33:15.158Z,74.80
2023-01-05T16:35:47.589Z,74.80
2023-01-05T16:38:29.068Z,74.80
2023-01-05T16:41:14.242Z,74.60
2023-01-05T16:43:45.803Z,74.60
2023-01-05T16:46:23.896Z,74.60
2023-01-05T16:48:57.086Z,74.80
2023-01-05T16:51:45.409Z,75.90
2023-01-05T16:54:28.057Z,76.20
2023-01-05T16:57:01.300Z,76.10
2023-01-05T16:59:52.481Z,75.10
2023-01-05T17:02:49.120Z,75.20
2023-01-05T17:05:27.816Z,75.30
2023-01-05T17:08:22.693Z,74.80
2023-01-05T17:10:51.438Z,74.80
2023-01-05T17:13:21.662Z,75.00
2023-01-05T17:15:52.363Z,74.70
2023-01-05T17:18:28.613Z,74.80
2023-01-05T17:20:58.265Z,74.80
2023-01-05T17:23:48.744Z,74.80
2023-01-05T17:26:32.458Z,74.40
2023-01-05T17:31:30.147Z,74.90
2023-01-05T17:33:57.141Z,74.90
2023-01-05T17:36:29.970Z,75.00
2023-01-05T17:38:57.095Z,75.00
2023-01-05T17:41:24.119Z,74.70
2023-01-05T17:43:51.202Z,74.60
2023-01-05T17:46:28.760Z,74.80
2023-01-05T17:48:58.857Z,74.00
2023-01-05T17:51:28.079Z,74.50
2023-01-05T17:53:59.496Z,74.30
2023-01-05T17:56:26.829Z,74.20
2023-01-05T17:58:53.724Z,73.50
2023-01-05T18:01:21.028Z,74.10
2023-01-05T18:06:20.203Z,74.10
2023-01-05T18:08:47.203Z,73.90
2023-01-05T18:11:15.546Z,74.30
2023-01-05T18:16:12.648Z,74.30
2023-01-05T18:18:39.576Z,74.20
2023-01-05T18:21:07.381Z,74.20
2023-01-05T18:23:35.132Z,73.80
2023-01-05T18:26:08.742Z,74.20
2023-01-05T18:28:37.534Z,74.20
2023-01-05T18:31:15.865Z,73.90
2023-01-05T18:33:43.153Z,73.70
2023-01-05T18:36:15.833Z,74.20
2023-01-05T18:38:43.617Z,74.20
2023-01-05T18:41:12.781Z,74.40
2023-01-05T18:43:40.468Z,74.00
2023-01-05T18:46:07.952Z,74.20
2023-01-05T18:48:34.857Z,74.20
2023-01-05T18:51:07.840Z,74.30
2023-01-05T18:53:38.551Z,74.50
2023-01-05T18:56:08.552Z,74.40
2023-01-05T18:58:35.623Z,74.70
2023-01-05T19:01:13.219Z,74.20
2023-01-05T19:03:40.662Z,74.10
2023-01-05T19:06:20.196Z,74.40
2023-01-05T19:08:48.907Z,74.30
2023-01-05T19:11:22.155Z,73.80
2023-01-05T19:13:50.977Z,74.20
2023-01-05T19:16:21.010Z,74.60
2023-01-05T19:19:05.117Z,74.60
2023-01-05T19:21:34.802Z,74.60
2023-01-05T19:24:04.194Z,74.70
2023-01-05T19:26:33.369Z,74.40
2023-01-05T19:29:02.154Z,74.70
2023-01-05T19:31:30.282Z,74.70
2023-01-05T19:34:00.772Z,74.60
2023-01-05T19:36:32.457Z,74.70
2023-01-05T19:39:10.876Z,74.70
2023-01-05T19:41:39.927Z,74.60
2023-01-05T19:44:07.328Z,74.60
2023-01-05T19:46:36.477Z,74.70
2023-01-05T19:49:03.977Z,74.70
2023-01-05T19:51:31.820Z,74.70
2023-01-05T19:54:03.096Z,74.60
2023-01-05T19:56:35.187Z,74.60
2023-01-05T19:59:07.664Z,74.60
2023-01-05T20:01:37.290Z,74.60
2023-01-05T20:04:04.871Z,74.60
2023-01-05T20:06:36.803Z,74.60
2023-01-05T20:09:09.340Z,74.70
2023-01-05T20:11:39.685Z,74.70
2023-01-05T20:14:15.438Z,74.60
2023-01-05T20:17:05.787Z,74.70
2023-01-05T20:19:35.791Z,74.70
2023-01-05T20:22:07.567Z,74.70
2023-01-05T20:24:36.724Z,74.70
2023-01-05T20:27:12.110Z,74.70
2023-01-05T20:29:40.376Z,74.70
2023-01-05T20:32:16.052Z,75.50
2023-01-05T20:34:46.051Z,75.00
2023-01-05T20:37:13.469Z,74.60
2023-01-05T20:39:41.714Z,74.70
2023-01-05T20:42:11.479Z,74.70
2023-01-05T20:44:45.283Z,74.60
2023-01-05T20:47:15.134Z,74.80
2023-01-05T20:49:45.464Z,75.00
2023-01-05T20:52:15.888Z,74.60
2023-01-05T20:54:43.632Z,75.00
2023-01-05T20:57:12.080Z,74.80
2023-01-05T20:59:40.836Z,74.70
2023-01-05T21:02:22.356Z,74.70
2023-01-05T21:04:52.491Z,74.80
2023-01-05T21:07:20.348Z,74.80
2023-01-05T21:09:47.578Z,74.80
2023-01-05T21:12:14.495Z,74.80
2023-01-05T21:14:41.703Z,74.80
2023-01-05T21:17:09.036Z,74.80
2023-01-05T21:19:36.090Z,74.80
2023-01-05T21:22:03.550Z,74.90
2023-01-05T21:24:30.513Z,74.80
2023-01-05T21:26:57.616Z,74.80
2023-01-05T21:29:26.474Z,74.80
2023-01-05T21:31:56.920Z,74.80
2023-01-05T21:34:24.402Z,74.80
2023-01-05T21:36:52.288Z,74.80
2023-01-05T21:39:24.599Z,74.80
2023-01-05T21:42:12.028Z,74.80
2023-01-05T21:44:39.864Z,74.80
2023-01-05T21:47:07.923Z,74.80
2023-01-05T21:49:35.958Z,74.90
2023-01-05T21:52:22.901Z,74.80
2023-01-05T21:55:08.743Z,74.90
2023-01-05T21:57:35.786Z,74.90
2023-01-05T22:00:02.779Z,74.80
2023-01-05T22:02:32.247Z,74.90
2023-01-05T22:04:59.181Z,74.80
2023-01-05T22:07:26.320Z,74.90
2023-01-05T22:09:53.226Z,74.80
2023-01-05T22:12:20.284Z,74.30
2023-01-05T22:14:47.244Z,74.60
2023-01-05T22:17:14.469Z,74.60
2023-01-05T22:19:41.473Z,74.40
2023-01-05T22:22:08.449Z,74.30
2023-01-05T22:24:35.348Z,74.30
2023-01-05T22:27:02.435Z,74.20
2023-01-05T22:29:29.393Z,74.20
2023-01-05T22:31:58.066Z,74.20
2023-01-05T22:34:25.258Z,74.00
2023-01-05T22:36:53.262Z,74.10
2023-01-05T22:39:20.360Z,74.20
2023-01-05T22:41:49.825Z,74.40
2023-01-05T22:44:17.569Z,74.30
2023-01-05T22:46:44.755Z,74.30
2023-01-05T22:49:16.408Z,74.10
2023-01-05T22:51:44.717Z,74.00
2023-01-05T22:54:12.375Z,74.20
2023-01-05T22:56:40.005Z,73.70
2023-01-05T22:59:07.122Z,74.00
2023-01-05T23:01:37.648Z,75.00
2023-01-05T23:04:06.616Z,74.10
2023-01-05T23:06:33.951Z,74.20
2023-01-05T23:09:03.042Z,74.10
2023-01-05T23:11:34.723Z,74.10
2023-01-05T23:14:04.740Z,74.00
2023-01-05T23:16:33.913Z,74.00
2023-01-05T23:19:01.709Z,74.00
2023-01-05T23:21:28.971Z,73.90
2023-01-05T23:23:57.980Z,74.00
2023-01-05T23:26:26.724Z,73.90
2023-01-05T23:28:54.219Z,74.20
2023-01-05T23:31:21.783Z,74.00
2023-01-05T23:33:49.304Z,74.00
2023-01-05T23:36:18.748Z,74.00
2023-01-05T23:38:47.420Z,74.00
2023-01-05T23:41:16.472Z,73.90
2023-01-05T23:43:45.620Z,74.00
2023-01-05T23:46:20.208Z,73.80
2023-01-05T23:48:48.804Z,73.90
2023-01-05T23:51:16.983Z,73.90
2023-01-05T23:53:46.918Z,74.10
2023-01-05T23:56:26.707Z,73.80
2023-01-05T23:59:06.162Z,73.90
